sensor_id;sensor_type;location;lat;lon;timestamp;P1;durP1;ratioP1;P2;durP2;ratioP2
47555;SDS011;33291;46.222;26.460;2024-02-23T00:02:18;7.82;;;3.83;;
47555;SDS011;33291;46.222;26.460;2024-02-23T00:04:44;9.13;;;4.30;;
47555;SDS011;33291;46.222;26.460;2024-02-23T00:07:10;10.35;;;4.10;;
47555;SDS011;33291;46.222;26.460;2024-02-23T00:09:36;7.10;;;3.83;;
47555;SDS011;33291;46.222;26.460;2024-02-23T00:12:02;6.07;;;3.70;;
47555;SDS011;33291;46.222;26.460;2024-02-23T00:14:29;6.85;;;3.80;;
47555;SDS011;33291;46.222;26.460;2024-02-23T00:16:56;7.15;;;4.38;;
47555;SDS011;33291;46.222;26.460;2024-02-23T00:19:23;7.82;;;3.10;;
47555;SDS011;33291;46.222;26.460;2024-02-23T00:21:50;9.27;;;3.97;;
47555;SDS011;33291;46.222;26.460;2024-02-23T00:24:17;5.80;;;3.55;;
47555;SDS011;33291;46.222;26.460;2024-02-23T00:26:45;5.82;;;3.72;;
47555;SDS011;33291;46.222;26.460;2024-02-23T00:29:11;8.73;;;3.35;;
47555;SDS011;33291;46.222;26.460;2024-02-23T00:31:38;5.90;;;3.20;;
47555;SDS011;33291;46.222;26.460;2024-02-23T00:34:06;6.90;;;3.58;;
47555;SDS011;33291;46.222;26.460;2024-02-23T00:36:35;5.35;;;2.83;;
47555;SDS011;33291;46.222;26.460;2024-02-23T00:39:03;7.20;;;2.75;;
47555;SDS011;33291;46.222;26.460;2024-02-23T00:41:29;5.93;;;3.47;;
47555;SDS011;33291;46.222;26.460;2024-02-23T00:43:54;5.90;;;3.40;;
47555;SDS011;33291;46.222;26.460;2024-02-23T00:46:20;6.65;;;3.60;;
47555;SDS011;33291;46.222;26.460;2024-02-23T00:48:45;8.43;;;3.90;;
47555;SDS011;33291;46.222;26.460;2024-02-23T00:51:12;6.43;;;3.33;;
47555;SDS011;33291;46.222;26.460;2024-02-23T00:53:37;7.25;;;3.65;;
47555;SDS011;33291;46.222;26.460;2024-02-23T00:56:03;11.20;;;3.65;;
47555;SDS011;33291;46.222;26.460;2024-02-23T00:58:29;9.27;;;4.88;;
47555;SDS011;33291;46.222;26.460;2024-02-23T01:00:54;10.43;;;4.50;;
47555;SDS011;33291;46.222;26.460;2024-02-23T01:03:20;7.65;;;3.65;;
47555;SDS011;33291;46.222;26.460;2024-02-23T01:05:46;8.95;;;4.25;;
47555;SDS011;33291;46.222;26.460;2024-02-23T01:08:11;6.63;;;3.72;;
47555;SDS011;33291;46.222;26.460;2024-02-23T01:10:37;4.63;;;3.35;;
47555;SDS011;33291;46.222;26.460;2024-02-23T01:13:03;11.90;;;4.63;;
47555;SDS011;33291;46.222;26.460;2024-02-23T01:15:30;6.75;;;2.90;;
47555;SDS011;33291;46.222;26.460;2024-02-23T01:17:56;8.32;;;4.10;;
47555;SDS011;33291;46.222;26.460;2024-02-23T01:20:21;13.50;;;4.22;;
47555;SDS011;33291;46.222;26.460;2024-02-23T01:22:47;8.95;;;3.72;;
47555;SDS011;33291;46.222;26.460;2024-02-23T01:25:19;11.07;;;4.60;;
47555;SDS011;33291;46.222;26.460;2024-02-23T01:27:44;10.27;;;5.05;;
47555;SDS011;33291;46.222;26.460;2024-02-23T01:30:10;7.57;;;3.90;;
47555;SDS011;33291;46.222;26.460;2024-02-23T01:32:36;8.55;;;4.60;;
47555;SDS011;33291;46.222;26.460;2024-02-23T01:35:04;10.70;;;3.95;;
47555;SDS011;33291;46.222;26.460;2024-02-23T01:37:30;9.50;;;4.00;;
47555;SDS011;33291;46.222;26.460;2024-02-23T01:39:56;9.90;;;3.97;;
47555;SDS011;33291;46.222;26.460;2024-02-23T01:42:23;7.40;;;3.38;;
47555;SDS011;33291;46.222;26.460;2024-02-23T01:44:49;8.25;;;4.22;;
47555;SDS011;33291;46.222;26.460;2024-02-23T01:47:15;8.98;;;4.28;;
47555;SDS011;33291;46.222;26.460;2024-02-23T01:49:40;9.20;;;4.50;;
47555;SDS011;33291;46.222;26.460;2024-02-23T01:52:07;14.85;;;7.15;;
47555;SDS011;33291;46.222;26.460;2024-02-23T01:54:32;10.55;;;5.43;;
47555;SDS011;33291;46.222;26.460;2024-02-23T01:56:59;10.25;;;6.22;;
47555;SDS011;33291;46.222;26.460;2024-02-23T01:59:25;10.88;;;5.35;;
47555;SDS011;33291;46.222;26.460;2024-02-23T02:01:51;8.60;;;4.13;;
47555;SDS011;33291;46.222;26.460;2024-02-23T02:04:17;8.63;;;4.40;;
47555;SDS011;33291;46.222;26.460;2024-02-23T02:06:44;7.45;;;3.85;;
47555;SDS011;33291;46.222;26.460;2024-02-23T02:09:11;8.70;;;3.80;;
47555;SDS011;33291;46.222;26.460;2024-02-23T02:11:44;9.00;;;4.00;;
47555;SDS011;33291;46.222;26.460;2024-02-23T02:14:14;7.07;;;3.80;;
47555;SDS011;33291;46.222;26.460;2024-02-23T02:16:40;7.78;;;3.65;;
47555;SDS011;33291;46.222;26.460;2024-02-23T02:19:05;6.22;;;3.53;;
47555;SDS011;33291;46.222;26.460;2024-02-23T02:21:32;5.32;;;3.03;;
47555;SDS011;33291;46.222;26.460;2024-02-23T02:23:58;7.22;;;3.65;;
47555;SDS011;33291;46.222;26.460;2024-02-23T02:26:23;5.70;;;2.85;;
47555;SDS011;33291;46.222;26.460;2024-02-23T02:28:49;4.85;;;2.78;;
47555;SDS011;33291;46.222;26.460;2024-02-23T02:31:14;8.30;;;3.28;;
47555;SDS011;33291;46.222;26.460;2024-02-23T02:33:40;6.93;;;3.08;;
47555;SDS011;33291;46.222;26.460;2024-02-23T02:36:06;4.47;;;2.95;;
47555;SDS011;33291;46.222;26.460;2024-02-23T02:38:32;10.00;;;3.78;;
47555;SDS011;33291;46.222;26.460;2024-02-23T02:41:00;4.95;;;2.70;;
47555;SDS011;33291;46.222;26.460;2024-02-23T02:43:26;6.05;;;2.63;;
47555;SDS011;33291;46.222;26.460;2024-02-23T02:45:52;7.03;;;3.63;;
47555;SDS011;33291;46.222;26.460;2024-02-23T02:48:18;6.70;;;3.38;;
47555;SDS011;33291;46.222;26.460;2024-02-23T02:50:44;7.00;;;4.00;;
47555;SDS011;33291;46.222;26.460;2024-02-23T02:53:10;6.28;;;4.03;;
47555;SDS011;33291;46.222;26.460;2024-02-23T02:55:36;8.18;;;2.78;;
47555;SDS011;33291;46.222;26.460;2024-02-23T02:58:02;5.78;;;2.88;;
47555;SDS011;33291;46.222;26.460;2024-02-23T03:00:28;8.85;;;3.13;;
47555;SDS011;33291;46.222;26.460;2024-02-23T03:02:53;7.25;;;2.75;;
47555;SDS011;33291;46.222;26.460;2024-02-23T03:05:19;4.00;;;2.47;;
47555;SDS011;33291;46.222;26.460;2024-02-23T03:07:45;5.47;;;2.70;;
47555;SDS011;33291;46.222;26.460;2024-02-23T03:10:10;7.40;;;3.45;;
47555;SDS011;33291;46.222;26.460;2024-02-23T03:12:36;5.63;;;2.83;;
47555;SDS011;33291;46.222;26.460;2024-02-23T03:15:02;9.07;;;2.83;;
47555;SDS011;33291;46.222;26.460;2024-02-23T03:17:28;4.47;;;2.67;;
47555;SDS011;33291;46.222;26.460;2024-02-23T03:19:54;4.05;;;2.60;;
47555;SDS011;33291;46.222;26.460;2024-02-23T03:22:19;4.32;;;2.25;;
47555;SDS011;33291;46.222;26.460;2024-02-23T03:24:45;4.15;;;2.28;;
47555;SDS011;33291;46.222;26.460;2024-02-23T03:27:11;10.10;;;3.30;;
47555;SDS011;33291;46.222;26.460;2024-02-23T03:29:37;4.18;;;2.42;;
47555;SDS011;33291;46.222;26.460;2024-02-23T03:32:04;5.47;;;2.42;;
47555;SDS011;33291;46.222;26.460;2024-02-23T03:34:30;5.35;;;2.47;;
47555;SDS011;33291;46.222;26.460;2024-02-23T03:36:56;4.63;;;2.28;;
47555;SDS011;33291;46.222;26.460;2024-02-23T03:39:23;4.20;;;1.90;;
47555;SDS011;33291;46.222;26.460;2024-02-23T03:41:49;4.13;;;2.35;;
47555;SDS011;33291;46.222;26.460;2024-02-23T03:44:14;7.38;;;2.22;;
47555;SDS011;33291;46.222;26.460;2024-02-23T03:46:40;5.30;;;2.38;;
47555;SDS011;33291;46.222;26.460;2024-02-23T03:49:05;5.03;;;1.80;;
47555;SDS011;33291;46.222;26.460;2024-02-23T03:51:31;5.93;;;2.35;;
47555;SDS011;33291;46.222;26.460;2024-02-23T03:53:59;4.55;;;2.53;;
47555;SDS011;33291;46.222;26.460;2024-02-23T03:56:24;5.18;;;2.25;;
47555;SDS011;33291;46.222;26.460;2024-02-23T03:58:50;4.93;;;2.30;;
47555;SDS011;33291;46.222;26.460;2024-02-23T04:01:16;5.75;;;2.42;;
47555;SDS011;33291;46.222;26.460;2024-02-23T04:03:41;5.85;;;2.38;;
47555;SDS011;33291;46.222;26.460;2024-02-23T04:06:07;4.75;;;2.80;;
47555;SDS011;33291;46.222;26.460;2024-02-23T04:08:33;4.15;;;2.72;;
47555;SDS011;33291;46.222;26.460;2024-02-23T04:10:58;6.97;;;3.28;;
47555;SDS011;33291;46.222;26.460;2024-02-23T04:13:24;6.45;;;2.83;;
47555;SDS011;33291;46.222;26.460;2024-02-23T04:15:49;5.32;;;3.17;;
47555;SDS011;33291;46.222;26.460;2024-02-23T04:18:15;8.60;;;4.70;;
47555;SDS011;33291;46.222;26.460;2024-02-23T04:20:41;7.13;;;4.05;;
47555;SDS011;33291;46.222;26.460;2024-02-23T04:23:06;5.05;;;3.20;;
47555;SDS011;33291;46.222;26.460;2024-02-23T04:25:32;4.95;;;3.15;;
47555;SDS011;33291;46.222;26.460;2024-02-23T04:27:58;6.53;;;3.47;;
47555;SDS011;33291;46.222;26.460;2024-02-23T04:30:23;7.97;;;3.17;;
47555;SDS011;33291;46.222;26.460;2024-02-23T04:32:49;10.15;;;4.55;;
47555;SDS011;33291;46.222;26.460;2024-02-23T04:35:14;6.18;;;3.58;;
47555;SDS011;33291;46.222;26.460;2024-02-23T04:37:43;7.90;;;3.65;;
47555;SDS011;33291;46.222;26.460;2024-02-23T04:40:10;5.07;;;3.38;;
47555;SDS011;33291;46.222;26.460;2024-02-23T04:42:36;7.82;;;4.07;;
47555;SDS011;33291;46.222;26.460;2024-02-23T04:45:01;10.35;;;4.78;;
47555;SDS011;33291;46.222;26.460;2024-02-23T04:47:27;8.80;;;3.72;;
47555;SDS011;33291;46.222;26.460;2024-02-23T04:49:53;6.13;;;3.38;;
47555;SDS011;33291;46.222;26.460;2024-02-23T04:52:18;5.45;;;3.60;;
47555;SDS011;33291;46.222;26.460;2024-02-23T04:54:45;6.85;;;3.95;;
47555;SDS011;33291;46.222;26.460;2024-02-23T04:57:10;7.90;;;3.42;;
47555;SDS011;33291;46.222;26.460;2024-02-23T04:59:36;7.97;;;4.10;;
47555;SDS011;33291;46.222;26.460;2024-02-23T05:02:02;9.38;;;4.72;;
47555;SDS011;33291;46.222;26.460;2024-02-23T05:04:27;7.95;;;4.47;;
47555;SDS011;33291;46.222;26.460;2024-02-23T05:06:53;8.45;;;3.28;;
47555;SDS011;33291;46.222;26.460;2024-02-23T05:09:19;5.95;;;3.13;;
47555;SDS011;33291;46.222;26.460;2024-02-23T05:11:45;5.78;;;3.05;;
47555;SDS011;33291;46.222;26.460;2024-02-23T05:14:12;7.00;;;3.25;;
47555;SDS011;33291;46.222;26.460;2024-02-23T05:16:38;5.95;;;3.45;;
47555;SDS011;33291;46.222;26.460;2024-02-23T05:19:04;8.57;;;3.20;;
47555;SDS011;33291;46.222;26.460;2024-02-23T05:21:29;7.10;;;2.40;;
47555;SDS011;33291;46.222;26.460;2024-02-23T05:23:56;6.25;;;2.35;;
47555;SDS011;33291;46.222;26.460;2024-02-23T05:26:22;3.28;;;2.15;;
47555;SDS011;33291;46.222;26.460;2024-02-23T05:28:47;5.05;;;2.88;;
47555;SDS011;33291;46.222;26.460;2024-02-23T05:31:13;7.82;;;4.20;;
47555;SDS011;33291;46.222;26.460;2024-02-23T05:33:38;8.10;;;5.93;;
47555;SDS011;33291;46.222;26.460;2024-02-23T05:36:04;5.93;;;3.20;;
47555;SDS011;33291;46.222;26.460;2024-02-23T05:38:30;4.07;;;2.63;;
47555;SDS011;33291;46.222;26.460;2024-02-23T05:40:56;7.57;;;2.45;;
47555;SDS011;33291;46.222;26.460;2024-02-23T05:43:21;4.55;;;2.63;;
47555;SDS011;33291;46.222;26.460;2024-02-23T05:45:47;5.35;;;2.65;;
47555;SDS011;33291;46.222;26.460;2024-02-23T05:48:13;6.47;;;2.75;;
47555;SDS011;33291;46.222;26.460;2024-02-23T05:50:38;6.55;;;2.80;;
47555;SDS011;33291;46.222;26.460;2024-02-23T05:53:04;6.85;;;2.63;;
47555;SDS011;33291;46.222;26.460;2024-02-23T05:55:30;4.50;;;2.30;;
47555;SDS011;33291;46.222;26.460;2024-02-23T05:57:56;5.03;;;2.53;;
47555;SDS011;33291;46.222;26.460;2024-02-23T06:00:21;4.15;;;2.28;;
47555;SDS011;33291;46.222;26.460;2024-02-23T06:02:47;6.57;;;3.83;;
47555;SDS011;33291;46.222;26.460;2024-02-23T06:05:13;9.73;;;5.78;;
47555;SDS011;33291;46.222;26.460;2024-02-23T06:07:39;10.23;;;3.50;;
47555;SDS011;33291;46.222;26.460;2024-02-23T06:10:05;5.88;;;2.65;;
47555;SDS011;33291;46.222;26.460;2024-02-23T06:12:31;14.73;;;6.25;;
47555;SDS011;33291;46.222;26.460;2024-02-23T06:14:56;4.30;;;2.72;;
47555;SDS011;33291;46.222;26.460;2024-02-23T06:17:23;7.32;;;3.97;;
47555;SDS011;33291;46.222;26.460;2024-02-23T06:19:49;5.57;;;3.30;;
47555;SDS011;33291;46.222;26.460;2024-02-23T06:22:15;8.50;;;4.18;;
47555;SDS011;33291;46.222;26.460;2024-02-23T06:24:47;4.88;;;2.70;;
47555;SDS011;33291;46.222;26.460;2024-02-23T06:27:13;5.90;;;2.92;;
47555;SDS011;33291;46.222;26.460;2024-02-23T06:29:39;28.60;;;12.32;;
47555;SDS011;33291;46.222;26.460;2024-02-23T06:32:04;8.45;;;5.15;;
47555;SDS011;33291;46.222;26.460;2024-02-23T06:34:30;22.77;;;10.65;;
47555;SDS011;33291;46.222;26.460;2024-02-23T06:36:56;25.65;;;13.27;;
47555;SDS011;33291;46.222;26.460;2024-02-23T06:39:22;20.05;;;8.88;;
47555;SDS011;33291;46.222;26.460;2024-02-23T06:41:48;5.90;;;3.70;;
47555;SDS011;33291;46.222;26.460;2024-02-23T06:44:13;5.38;;;3.33;;
47555;SDS011;33291;46.222;26.460;2024-02-23T06:46:39;8.30;;;4.05;;
47555;SDS011;33291;46.222;26.460;2024-02-23T06:49:05;12.02;;;6.07;;
47555;SDS011;33291;46.222;26.460;2024-02-23T06:51:32;9.77;;;4.72;;
47555;SDS011;33291;46.222;26.460;2024-02-23T06:53:57;8.48;;;4.28;;
47555;SDS011;33291;46.222;26.460;2024-02-23T06:56:23;5.47;;;3.00;;
47555;SDS011;33291;46.222;26.460;2024-02-23T06:58:48;10.23;;;6.38;;
47555;SDS011;33291;46.222;26.460;2024-02-23T07:01:14;6.95;;;4.32;;
47555;SDS011;33291;46.222;26.460;2024-02-23T07:03:40;19.05;;;8.65;;
47555;SDS011;33291;46.222;26.460;2024-02-23T07:06:08;12.10;;;7.10;;
47555;SDS011;33291;46.222;26.460;2024-02-23T07:08:35;10.20;;;4.53;;
47555;SDS011;33291;46.222;26.460;2024-02-23T07:11:01;5.50;;;2.97;;
47555;SDS011;33291;46.222;26.460;2024-02-23T07:13:26;7.00;;;3.90;;
47555;SDS011;33291;46.222;26.460;2024-02-23T07:15:52;5.05;;;2.85;;
47555;SDS011;33291;46.222;26.460;2024-02-23T07:18:17;6.95;;;4.03;;
47555;SDS011;33291;46.222;26.460;2024-02-23T07:20:43;9.55;;;4.07;;
47555;SDS011;33291;46.222;26.460;2024-02-23T07:23:09;11.80;;;5.72;;
47555;SDS011;33291;46.222;26.460;2024-02-23T07:25:35;12.55;;;5.00;;
47555;SDS011;33291;46.222;26.460;2024-02-23T07:28:01;11.95;;;5.35;;
47555;SDS011;33291;46.222;26.460;2024-02-23T07:30:26;5.13;;;3.50;;
47555;SDS011;33291;46.222;26.460;2024-02-23T07:32:52;7.90;;;3.42;;
47555;SDS011;33291;46.222;26.460;2024-02-23T07:35:17;7.00;;;3.22;;
47555;SDS011;33291;46.222;26.460;2024-02-23T07:37:43;16.10;;;7.25;;
47555;SDS011;33291;46.222;26.460;2024-02-23T07:40:09;17.20;;;6.05;;
47555;SDS011;33291;46.222;26.460;2024-02-23T07:42:34;10.35;;;5.80;;
47555;SDS011;33291;46.222;26.460;2024-02-23T07:45:01;8.70;;;4.13;;
47555;SDS011;33291;46.222;26.460;2024-02-23T07:47:31;6.40;;;2.67;;
47555;SDS011;33291;46.222;26.460;2024-02-23T07:49:57;4.35;;;2.20;;
47555;SDS011;33291;46.222;26.460;2024-02-23T07:52:23;7.15;;;3.30;;
47555;SDS011;33291;46.222;26.460;2024-02-23T07:54:49;10.95;;;5.13;;
47555;SDS011;33291;46.222;26.460;2024-02-23T07:57:17;21.88;;;10.23;;
47555;SDS011;33291;46.222;26.460;2024-02-23T07:59:43;27.13;;;15.30;;
47555;SDS011;33291;46.222;26.460;2024-02-23T08:02:09;22.95;;;12.48;;
47555;SDS011;33291;46.222;26.460;2024-02-23T08:04:35;14.20;;;7.93;;
47555;SDS011;33291;46.222;26.460;2024-02-23T08:07:01;13.50;;;5.55;;
47555;SDS011;33291;46.222;26.460;2024-02-23T08:09:27;17.25;;;6.05;;
47555;SDS011;33291;46.222;26.460;2024-02-23T08:11:52;12.32;;;6.10;;
47555;SDS011;33291;46.222;26.460;2024-02-23T08:14:18;11.90;;;5.25;;
47555;SDS011;33291;46.222;26.460;2024-02-23T08:16:43;17.52;;;6.30;;
47555;SDS011;33291;46.222;26.460;2024-02-23T08:19:09;12.93;;;4.90;;
47555;SDS011;33291;46.222;26.460;2024-02-23T08:21:35;13.68;;;6.18;;
47555;SDS011;33291;46.222;26.460;2024-02-23T08:24:01;10.80;;;4.53;;
47555;SDS011;33291;46.222;26.460;2024-02-23T08:26:27;7.85;;;3.72;;
47555;SDS011;33291;46.222;26.460;2024-02-23T08:28:53;7.78;;;3.72;;
47555;SDS011;33291;46.222;26.460;2024-02-23T08:31:19;6.80;;;3.85;;
47555;SDS011;33291;46.222;26.460;2024-02-23T08:33:44;6.95;;;3.25;;
47555;SDS011;33291;46.222;26.460;2024-02-23T08:36:10;5.90;;;3.50;;
47555;SDS011;33291;46.222;26.460;2024-02-23T08:38:35;6.25;;;2.88;;
47555;SDS011;33291;46.222;26.460;2024-02-23T08:41:02;11.15;;;3.28;;
47555;SDS011;33291;46.222;26.460;2024-02-23T08:43:28;12.30;;;2.90;;
47555;SDS011;33291;46.222;26.460;2024-02-23T08:45:53;9.27;;;2.53;;
47555;SDS011;33291;46.222;26.460;2024-02-23T08:48:19;10.10;;;3.30;;
47555;SDS011;33291;46.222;26.460;2024-02-23T08:50:44;6.25;;;3.25;;
47555;SDS011;33291;46.222;26.460;2024-02-23T08:53:10;5.80;;;2.92;;
47555;SDS011;33291;46.222;26.460;2024-02-23T08:55:35;11.07;;;3.33;;
47555;SDS011;33291;46.222;26.460;2024-02-23T08:58:01;7.50;;;3.25;;
47555;SDS011;33291;46.222;26.460;2024-02-23T09:00:27;7.30;;;3.28;;
47555;SDS011;33291;46.222;26.460;2024-02-23T09:02:52;4.90;;;2.92;;
47555;SDS011;33291;46.222;26.460;2024-02-23T09:05:18;4.50;;;2.85;;
47555;SDS011;33291;46.222;26.460;2024-02-23T09:07:44;7.95;;;3.20;;
47555;SDS011;33291;46.222;26.460;2024-02-23T09:10:10;4.57;;;2.55;;
47555;SDS011;33291;46.222;26.460;2024-02-23T09:12:37;4.40;;;2.88;;
47555;SDS011;33291;46.222;26.460;2024-02-23T09:15:02;12.52;;;3.78;;
47555;SDS011;33291;46.222;26.460;2024-02-23T09:17:28;5.47;;;2.72;;
47555;SDS011;33291;46.222;26.460;2024-02-23T09:19:54;4.93;;;2.53;;
47555;SDS011;33291;46.222;26.460;2024-02-23T09:22:19;4.55;;;2.67;;
47555;SDS011;33291;46.222;26.460;2024-02-23T09:24:45;5.28;;;2.58;;
47555;SDS011;33291;46.222;26.460;2024-02-23T09:27:10;6.38;;;3.25;;
47555;SDS011;33291;46.222;26.460;2024-02-23T09:29:36;3.95;;;2.70;;
47555;SDS011;33291;46.222;26.460;2024-02-23T09:32:02;6.85;;;2.72;;
47555;SDS011;33291;46.222;26.460;2024-02-23T09:34:30;9.93;;;5.63;;
47555;SDS011;33291;46.222;26.460;2024-02-23T09:36:55;3.30;;;2.42;;
47555;SDS011;33291;46.222;26.460;2024-02-23T09:39:21;6.03;;;3.33;;
47555;SDS011;33291;46.222;26.460;2024-02-23T09:41:49;5.10;;;3.38;;
47555;SDS011;33291;46.222;26.460;2024-02-23T09:44:16;6.63;;;3.70;;
47555;SDS011;33291;46.222;26.460;2024-02-23T09:46:45;4.88;;;3.05;;
47555;SDS011;33291;46.222;26.460;2024-02-23T09:49:11;5.15;;;3.25;;
47555;SDS011;33291;46.222;26.460;2024-02-23T09:51:38;5.40;;;3.33;;
47555;SDS011;33291;46.222;26.460;2024-02-23T09:54:04;5.53;;;3.17;;
47555;SDS011;33291;46.222;26.460;2024-02-23T09:56:30;7.18;;;3.13;;
47555;SDS011;33291;46.222;26.460;2024-02-23T09:58:58;5.78;;;2.97;;
47555;SDS011;33291;46.222;26.460;2024-02-23T10:01:29;9.57;;;4.57;;
47555;SDS011;33291;46.222;26.460;2024-02-23T10:03:59;8.98;;;5.13;;
47555;SDS011;33291;46.222;26.460;2024-02-23T10:06:26;6.82;;;3.72;;
47555;SDS011;33291;46.222;26.460;2024-02-23T10:08:52;8.90;;;4.20;;
47555;SDS011;33291;46.222;26.460;2024-02-23T10:11:22;7.18;;;3.78;;
47555;SDS011;33291;46.222;26.460;2024-02-23T10:13:48;5.65;;;3.20;;
47555;SDS011;33291;46.222;26.460;2024-02-23T10:16:15;7.72;;;4.00;;
47555;SDS011;33291;46.222;26.460;2024-02-23T10:18:41;6.47;;;3.33;;
47555;SDS011;33291;46.222;26.460;2024-02-23T10:21:07;7.13;;;4.15;;
47555;SDS011;33291;46.222;26.460;2024-02-23T10:23:33;9.77;;;4.57;;
47555;SDS011;33291;46.222;26.460;2024-02-23T10:25:58;5.70;;;3.53;;
47555;SDS011;33291;46.222;26.460;2024-02-23T10:28:24;5.65;;;3.38;;
47555;SDS011;33291;46.222;26.460;2024-02-23T10:30:50;8.38;;;3.40;;
47555;SDS011;33291;46.222;26.460;2024-02-23T10:33:15;5.65;;;3.25;;
47555;SDS011;33291;46.222;26.460;2024-02-23T10:35:44;10.32;;;5.03;;
47555;SDS011;33291;46.222;26.460;2024-02-23T10:38:12;6.15;;;2.92;;
47555;SDS011;33291;46.222;26.460;2024-02-23T10:40:42;6.28;;;3.38;;
47555;SDS011;33291;46.222;26.460;2024-02-23T10:43:17;8.30;;;3.17;;
47555;SDS011;33291;46.222;26.460;2024-02-23T10:45:46;5.82;;;3.90;;
47555;SDS011;33291;46.222;26.460;2024-02-23T10:48:12;6.82;;;2.75;;
47555;SDS011;33291;46.222;26.460;2024-02-23T10:50:39;6.55;;;3.38;;
47555;SDS011;33291;46.222;26.460;2024-02-23T10:53:07;5.32;;;3.40;;
47555;SDS011;33291;46.222;26.460;2024-02-23T10:55:36;7.30;;;3.58;;
47555;SDS011;33291;46.222;26.460;2024-02-23T10:58:04;7.82;;;3.75;;
47555;SDS011;33291;46.222;26.460;2024-02-23T11:00:34;6.13;;;3.50;;
47555;SDS011;33291;46.222;26.460;2024-02-23T11:03:00;5.80;;;3.55;;
47555;SDS011;33291;46.222;26.460;2024-02-23T11:05:28;4.57;;;2.78;;
47555;SDS011;33291;46.222;26.460;2024-02-23T11:07:58;5.70;;;3.20;;
47555;SDS011;33291;46.222;26.460;2024-02-23T11:10:23;4.18;;;3.15;;
47555;SDS011;33291;46.222;26.460;2024-02-23T11:12:59;4.65;;;2.90;;
47555;SDS011;33291;46.222;26.460;2024-02-23T11:15:28;6.53;;;3.27;;
47555;SDS011;33291;46.222;26.460;2024-02-23T11:17:55;7.70;;;3.58;;
47555;SDS011;33291;46.222;26.460;2024-02-23T11:20:21;4.20;;;2.65;;
47555;SDS011;33291;46.222;26.460;2024-02-23T11:22:51;4.65;;;2.60;;
47555;SDS011;33291;46.222;26.460;2024-02-23T11:25:20;4.93;;;2.97;;
47555;SDS011;33291;46.222;26.460;2024-02-23T11:27:52;5.13;;;2.95;;
47555;SDS011;33291;46.222;26.460;2024-02-23T11:30:17;11.98;;;4.63;;
47555;SDS011;33291;46.222;26.460;2024-02-23T11:32:47;4.70;;;2.88;;
47555;SDS011;33291;46.222;26.460;2024-02-23T11:35:14;6.75;;;4.20;;
47555;SDS011;33291;46.222;26.460;2024-02-23T11:37:56;5.70;;;2.88;;
47555;SDS011;33291;46.222;26.460;2024-02-23T11:40:26;6.47;;;3.08;;
47555;SDS011;33291;46.222;26.460;2024-02-23T11:42:54;5.72;;;3.22;;
47555;SDS011;33291;46.222;26.460;2024-02-23T11:45:20;5.47;;;3.22;;
47555;SDS011;33291;46.222;26.460;2024-02-23T11:47:45;6.45;;;2.67;;
47555;SDS011;33291;46.222;26.460;2024-02-23T11:50:11;6.25;;;4.13;;
47555;SDS011;33291;46.222;26.460;2024-02-23T11:52:40;8.52;;;4.40;;
47555;SDS011;33291;46.222;26.460;2024-02-23T11:55:06;8.15;;;3.80;;
47555;SDS011;33291;46.222;26.460;2024-02-23T11:57:33;5.75;;;3.22;;
47555;SDS011;33291;46.222;26.460;2024-02-23T12:00:02;7.72;;;3.38;;
47555;SDS011;33291;46.222;26.460;2024-02-23T12:02:29;6.65;;;2.90;;
47555;SDS011;33291;46.222;26.460;2024-02-23T12:04:54;3.30;;;2.28;;
47555;SDS011;33291;46.222;26.460;2024-02-23T12:07:20;7.45;;;3.35;;
47555;SDS011;33291;46.222;26.460;2024-02-23T12:09:47;6.63;;;3.10;;
47555;SDS011;33291;46.222;26.460;2024-02-23T12:12:13;6.13;;;3.15;;
47555;SDS011;33291;46.222;26.460;2024-02-23T12:14:39;5.78;;;2.72;;
47555;SDS011;33291;46.222;26.460;2024-02-23T12:17:05;4.80;;;2.53;;
47555;SDS011;33291;46.222;26.460;2024-02-23T12:19:37;5.10;;;2.78;;
47555;SDS011;33291;46.222;26.460;2024-02-23T12:22:06;4.85;;;3.15;;
47555;SDS011;33291;46.222;26.460;2024-02-23T12:24:32;5.63;;;3.42;;
47555;SDS011;33291;46.222;26.460;2024-02-23T12:26:57;3.90;;;2.70;;
47555;SDS011;33291;46.222;26.460;2024-02-23T12:29:23;4.90;;;2.67;;
47555;SDS011;33291;46.222;26.460;2024-02-23T12:31:49;3.75;;;2.40;;
47555;SDS011;33291;46.222;26.460;2024-02-23T12:34:15;5.50;;;2.63;;
47555;SDS011;33291;46.222;26.460;2024-02-23T12:36:41;5.22;;;2.30;;
47555;SDS011;33291;46.222;26.460;2024-02-23T12:39:06;5.28;;;2.85;;
47555;SDS011;33291;46.222;26.460;2024-02-23T12:41:32;3.38;;;2.20;;
47555;SDS011;33291;46.222;26.460;2024-02-23T12:43:59;4.72;;;2.85;;
47555;SDS011;33291;46.222;26.460;2024-02-23T12:46:24;4.70;;;2.83;;
47555;SDS011;33291;46.222;26.460;2024-02-23T12:48:50;4.55;;;2.60;;
47555;SDS011;33291;46.222;26.460;2024-02-23T12:51:16;6.97;;;3.60;;
47555;SDS011;33291;46.222;26.460;2024-02-23T12:53:43;2.92;;;2.25;;
47555;SDS011;33291;46.222;26.460;2024-02-23T12:56:12;5.28;;;2.47;;
47555;SDS011;33291;46.222;26.460;2024-02-23T12:58:39;5.18;;;2.95;;
47555;SDS011;33291;46.222;26.460;2024-02-23T13:01:07;4.35;;;2.58;;
47555;SDS011;33291;46.222;26.460;2024-02-23T13:03:33;4.05;;;2.60;;
47555;SDS011;33291;46.222;26.460;2024-02-23T13:06:00;4.93;;;2.40;;
47555;SDS011;33291;46.222;26.460;2024-02-23T13:08:26;2.45;;;2.13;;
47555;SDS011;33291;46.222;26.460;2024-02-23T13:10:52;5.43;;;2.30;;
47555;SDS011;33291;46.222;26.460;2024-02-23T13:13:19;8.75;;;3.30;;
47555;SDS011;33291;46.222;26.460;2024-02-23T13:15:46;14.07;;;6.10;;
47555;SDS011;33291;46.222;26.460;2024-02-23T13:18:12;17.42;;;7.43;;
47555;SDS011;33291;46.222;26.460;2024-02-23T13:20:38;14.93;;;7.93;;
47555;SDS011;33291;46.222;26.460;2024-02-23T13:23:06;12.80;;;6.95;;
47555;SDS011;33291;46.222;26.460;2024-02-23T13:25:34;13.43;;;7.35;;
47555;SDS011;33291;46.222;26.460;2024-02-23T13:28:00;15.18;;;8.20;;
47555;SDS011;33291;46.222;26.460;2024-02-23T13:30:26;16.00;;;8.20;;
47555;SDS011;33291;46.222;26.460;2024-02-23T13:32:52;15.63;;;7.47;;
47555;SDS011;33291;46.222;26.460;2024-02-23T13:35:17;16.52;;;8.02;;
47555;SDS011;33291;46.222;26.460;2024-02-23T13:37:43;15.52;;;6.97;;
47555;SDS011;33291;46.222;26.460;2024-02-23T13:40:09;17.35;;;7.63;;
47555;SDS011;33291;46.222;26.460;2024-02-23T13:42:35;17.17;;;8.23;;
47555;SDS011;33291;46.222;26.460;2024-02-23T13:45:04;15.68;;;7.60;;
47555;SDS011;33291;46.222;26.460;2024-02-23T13:47:31;20.83;;;7.93;;
47555;SDS011;33291;46.222;26.460;2024-02-23T13:49:56;12.45;;;7.60;;
47555;SDS011;33291;46.222;26.460;2024-02-23T13:52:22;17.67;;;8.73;;
47555;SDS011;33291;46.222;26.460;2024-02-23T13:54:48;15.35;;;7.35;;
47555;SDS011;33291;46.222;26.460;2024-02-23T13:57:13;13.65;;;7.93;;
47555;SDS011;33291;46.222;26.460;2024-02-23T13:59:39;18.55;;;7.63;;
47555;SDS011;33291;46.222;26.460;2024-02-23T14:02:05;18.08;;;8.40;;
47555;SDS011;33291;46.222;26.460;2024-02-23T14:04:30;17.73;;;7.72;;
47555;SDS011;33291;46.222;26.460;2024-02-23T14:06:56;16.17;;;8.50;;
47555;SDS011;33291;46.222;26.460;2024-02-23T14:09:21;17.83;;;9.43;;
47555;SDS011;33291;46.222;26.460;2024-02-23T14:11:47;15.52;;;8.88;;
47555;SDS011;33291;46.222;26.460;2024-02-23T14:14:13;17.45;;;9.80;;
47555;SDS011;33291;46.222;26.460;2024-02-23T14:16:40;17.38;;;8.70;;
47555;SDS011;33291;46.222;26.460;2024-02-23T14:19:05;17.33;;;9.77;;
47555;SDS011;33291;46.222;26.460;2024-02-23T14:21:31;20.00;;;9.73;;
47555;SDS011;33291;46.222;26.460;2024-02-23T14:23:56;17.05;;;9.25;;
47555;SDS011;33291;46.222;26.460;2024-02-23T14:26:22;19.08;;;11.07;;